sensor_id;sensor_type;location;lat;lon;timestamp;P1;durP1;ratioP1;P2;durP2;ratioP2
80225;SDS011;69538;42.000;21.452;2023-07-13T00:00:34;12.25;;;5.80;;
80225;SDS011;69538;42.000;21.452;2023-07-13T00:03:01;17.77;;;6.30;;
80225;SDS011;69538;42.000;21.452;2023-07-13T00:05:27;11.88;;;5.43;;
80225;SDS011;69538;42.000;21.452;2023-07-13T00:07:53;11.18;;;6.03;;
80225;SDS011;69538;42.000;21.452;2023-07-13T00:10:20;10.32;;;6.03;;
80225;SDS011;69538;42.000;21.452;2023-07-13T00:12:46;10.27;;;5.53;;
80225;SDS011;69538;42.000;21.452;2023-07-13T00:15:16;13.65;;;6.63;;
80225;SDS011;69538;42.000;21.452;2023-07-13T00:17:46;12.85;;;5.75;;
80225;SDS011;69538;42.000;21.452;2023-07-13T00:20:12;12.23;;;5.40;;
80225;SDS011;69538;42.000;21.452;2023-07-13T00:22:38;11.65;;;5.57;;
80225;SDS011;69538;42.000;21.452;2023-07-13T00:25:04;11.13;;;6.03;;
80225;SDS011;69538;42.000;21.452;2023-07-13T00:27:31;14.32;;;6.43;;
80225;SDS011;69538;42.000;21.452;2023-07-13T00:29:57;10.85;;;6.13;;
80225;SDS011;69538;42.000;21.452;2023-07-13T00:32:24;11.15;;;6.55;;
80225;SDS011;69538;42.000;21.452;2023-07-13T00:34:51;14.48;;;6.53;;
80225;SDS011;69538;42.000;21.452;2023-07-13T00:37:17;14.82;;;7.18;;
80225;SDS011;69538;42.000;21.452;2023-07-13T00:39:43;12.73;;;6.63;;
80225;SDS011;69538;42.000;21.452;2023-07-13T00:42:10;15.50;;;8.95;;
80225;SDS011;69538;42.000;21.452;2023-07-13T00:44:36;14.07;;;7.57;;
80225;SDS011;69538;42.000;21.452;2023-07-13T00:49:30;16.42;;;8.38;;
80225;SDS011;69538;42.000;21.452;2023-07-13T00:51:58;22.17;;;9.73;;
80225;SDS011;69538;42.000;21.452;2023-07-13T00:54:31;17.45;;;8.88;;
80225;SDS011;69538;42.000;21.452;2023-07-13T00:56:59;12.82;;;8.20;;
80225;SDS011;69538;42.000;21.452;2023-07-13T00:59:26;18.17;;;8.98;;
80225;SDS011;69538;42.000;21.452;2023-07-13T01:01:53;16.77;;;8.35;;
80225;SDS011;69538;42.000;21.452;2023-07-13T01:04:19;15.63;;;8.32;;
80225;SDS011;69538;42.000;21.452;2023-07-13T01:06:45;14.52;;;8.63;;
80225;SDS011;69538;42.000;21.452;2023-07-13T01:09:12;18.02;;;8.57;;
80225;SDS011;69538;42.000;21.452;2023-07-13T01:11:38;16.63;;;8.07;;
80225;SDS011;69538;42.000;21.452;2023-07-13T01:14:05;15.40;;;7.28;;
80225;SDS011;69538;42.000;21.452;2023-07-13T01:16:32;13.98;;;7.50;;
80225;SDS011;69538;42.000;21.452;2023-07-13T01:18:58;18.52;;;7.72;;
80225;SDS011;69538;42.000;21.452;2023-07-13T01:21:27;14.98;;;7.38;;
80225;SDS011;69538;42.000;21.452;2023-07-13T01:23:53;13.93;;;7.15;;
80225;SDS011;69538;42.000;21.452;2023-07-13T01:26:20;13.60;;;7.13;;
80225;SDS011;69538;42.000;21.452;2023-07-13T01:28:46;13.88;;;6.70;;
80225;SDS011;69538;42.000;21.452;2023-07-13T01:31:12;13.80;;;7.57;;
80225;SDS011;69538;42.000;21.452;2023-07-13T01:33:39;11.90;;;7.47;;
80225;SDS011;69538;42.000;21.452;2023-07-13T01:36:06;15.77;;;8.13;;
80225;SDS011;69538;42.000;21.452;2023-07-13T01:38:32;14.07;;;7.10;;
80225;SDS011;69538;42.000;21.452;2023-07-13T01:40:59;13.70;;;7.10;;
80225;SDS011;69538;42.000;21.452;2023-07-13T01:43:25;11.95;;;7.07;;
80225;SDS011;69538;42.000;21.452;2023-07-13T01:45:51;12.80;;;7.10;;
80225;SDS011;69538;42.000;21.452;2023-07-13T01:48:17;12.15;;;6.85;;
80225;SDS011;69538;42.000;21.452;2023-07-13T01:50:45;11.93;;;6.82;;
80225;SDS011;69538;42.000;21.452;2023-07-13T01:53:11;12.55;;;6.70;;
80225;SDS011;69538;42.000;21.452;2023-07-13T01:55:37;13.48;;;6.78;;
80225;SDS011;69538;42.000;21.452;2023-07-13T01:58:03;14.07;;;7.38;;
80225;SDS011;69538;42.000;21.452;2023-07-13T02:00:30;9.90;;;6.47;;
80225;SDS011;69538;42.000;21.452;2023-07-13T02:02:56;12.50;;;6.78;;
80225;SDS011;69538;42.000;21.452;2023-07-13T02:05:22;19.52;;;6.75;;
80225;SDS011;69538;42.000;21.452;2023-07-13T02:07:48;13.23;;;6.07;;
80225;SDS011;69538;42.000;21.452;2023-07-13T02:10:15;9.80;;;5.43;;
80225;SDS011;69538;42.000;21.452;2023-07-13T02:12:41;12.05;;;5.50;;
80225;SDS011;69538;42.000;21.452;2023-07-13T02:15:08;12.32;;;5.50;;
80225;SDS011;69538;42.000;21.452;2023-07-13T02:17:35;10.95;;;5.43;;
80225;SDS011;69538;42.000;21.452;2023-07-13T02:20:02;12.40;;;5.78;;
80225;SDS011;69538;42.000;21.452;2023-07-13T02:24:55;10.85;;;5.43;;
80225;SDS011;69538;42.000;21.452;2023-07-13T02:27:21;9.63;;;5.68;;
80225;SDS011;69538;42.000;21.452;2023-07-13T02:29:48;12.27;;;5.40;;
80225;SDS011;69538;42.000;21.452;2023-07-13T02:32:16;9.07;;;5.50;;
80225;SDS011;69538;42.000;21.452;2023-07-13T02:34:43;11.63;;;5.80;;
80225;SDS011;69538;42.000;21.452;2023-07-13T02:37:09;9.77;;;5.47;;
80225;SDS011;69538;42.000;21.452;2023-07-13T02:39:35;9.15;;;5.50;;
80225;SDS011;69538;42.000;21.452;2023-07-13T02:42:01;15.23;;;5.65;;
80225;SDS011;69538;42.000;21.452;2023-07-13T02:44:28;10.73;;;5.35;;
80225;SDS011;69538;42.000;21.452;2023-07-13T02:46:54;8.88;;;5.60;;
80225;SDS011;69538;42.000;21.452;2023-07-13T02:49:20;12.38;;;5.30;;
80225;SDS011;69538;42.000;21.452;2023-07-13T02:51:47;10.88;;;5.50;;
80225;SDS011;69538;42.000;21.452;2023-07-13T02:54:13;9.77;;;5.13;;
80225;SDS011;69538;42.000;21.452;2023-07-13T02:56:40;12.75;;;6.05;;
80225;SDS011;69538;42.000;21.452;2023-07-13T02:59:06;10.48;;;5.63;;
80225;SDS011;69538;42.000;21.452;2023-07-13T03:01:32;9.95;;;5.40;;
80225;SDS011;69538;42.000;21.452;2023-07-13T03:04:00;12.75;;;5.15;;
80225;SDS011;69538;42.000;21.452;2023-07-13T03:06:26;10.48;;;5.43;;
80225;SDS011;69538;42.000;21.452;2023-07-13T03:08:55;9.07;;;5.10;;
80225;SDS011;69538;42.000;21.452;2023-07-13T03:11:22;10.23;;;5.45;;
80225;SDS011;69538;42.000;21.452;2023-07-13T03:13:48;12.20;;;5.32;;
80225;SDS011;69538;42.000;21.452;2023-07-13T03:16:15;10.00;;;5.90;;
80225;SDS011;69538;42.000;21.452;2023-07-13T03:18:41;12.80;;;5.97;;
80225;SDS011;69538;42.000;21.452;2023-07-13T03:21:07;10.45;;;5.57;;
80225;SDS011;69538;42.000;21.452;2023-07-13T03:23:33;11.68;;;6.93;;
80225;SDS011;69538;42.000;21.452;2023-07-13T03:26:04;11.25;;;5.97;;
80225;SDS011;69538;42.000;21.452;2023-07-13T03:28:31;15.40;;;6.60;;
80225;SDS011;69538;42.000;21.452;2023-07-13T03:31:04;15.40;;;6.40;;
80225;SDS011;69538;42.000;21.452;2023-07-13T03:33:30;12.68;;;6.38;;
80225;SDS011;69538;42.000;21.452;2023-07-13T03:35:57;14.10;;;6.40;;
80225;SDS011;69538;42.000;21.452;2023-07-13T03:38:23;14.20;;;7.20;;
80225;SDS011;69538;42.000;21.452;2023-07-13T03:40:49;13.80;;;7.40;;
80225;SDS011;69538;42.000;21.452;2023-07-13T03:43:15;16.33;;;8.68;;
80225;SDS011;69538;42.000;21.452;2023-07-13T03:45:41;15.32;;;6.90;;
80225;SDS011;69538;42.000;21.452;2023-07-13T03:48:08;12.60;;;6.32;;
80225;SDS011;69538;42.000;21.452;2023-07-13T03:50:34;12.48;;;6.38;;
80225;SDS011;69538;42.000;21.452;2023-07-13T03:53:01;11.65;;;5.85;;
80225;SDS011;69538;42.000;21.452;2023-07-13T03:55:27;11.23;;;5.88;;
80225;SDS011;69538;42.000;21.452;2023-07-13T03:57:54;12.27;;;5.93;;
80225;SDS011;69538;42.000;21.452;2023-07-13T04:00:23;9.10;;;5.50;;
80225;SDS011;69538;42.000;21.452;2023-07-13T04:02:49;13.70;;;5.50;;
80225;SDS011;69538;42.000;21.452;2023-07-13T04:05:16;15.98;;;6.50;;
80225;SDS011;69538;42.000;21.452;2023-07-13T04:07:42;13.50;;;5.85;;
80225;SDS011;69538;42.000;21.452;2023-07-13T04:10:09;11.10;;;5.75;;
80225;SDS011;69538;42.000;21.452;2023-07-13T04:12:35;13.48;;;5.70;;
80225;SDS011;69538;42.000;21.452;2023-07-13T04:15:01;12.10;;;5.60;;
80225;SDS011;69538;42.000;21.452;2023-07-13T04:17:27;12.45;;;6.00;;
80225;SDS011;69538;42.000;21.452;2023-07-13T04:19:54;9.48;;;5.18;;
80225;SDS011;69538;42.000;21.452;2023-07-13T04:22:20;10.25;;;5.57;;
80225;SDS011;69538;42.000;21.452;2023-07-13T04:24:46;12.02;;;5.55;;
80225;SDS011;69538;42.000;21.452;2023-07-13T04:27:12;12.45;;;5.82;;
80225;SDS011;69538;42.000;21.452;2023-07-13T04:29:38;15.45;;;5.03;;
80225;SDS011;69538;42.000;21.452;2023-07-13T04:32:04;12.70;;;5.68;;
80225;SDS011;69538;42.000;21.452;2023-07-13T04:34:30;10.55;;;6.03;;
80225;SDS011;69538;42.000;21.452;2023-07-13T04:36:57;11.68;;;6.03;;
80225;SDS011;69538;42.000;21.452;2023-07-13T04:39:23;12.13;;;5.25;;
80225;SDS011;69538;42.000;21.452;2023-07-13T04:41:49;13.10;;;6.15;;
80225;SDS011;69538;42.000;21.452;2023-07-13T04:44:15;12.30;;;5.28;;
80225;SDS011;69538;42.000;21.452;2023-07-13T04:46:42;11.38;;;5.07;;
80225;SDS011;69538;42.000;21.452;2023-07-13T04:49:08;11.65;;;6.40;;
80225;SDS011;69538;42.000;21.452;2023-07-13T04:51:34;14.90;;;6.00;;
80225;SDS011;69538;42.000;21.452;2023-07-13T04:54:00;12.55;;;5.47;;
80225;SDS011;69538;42.000;21.452;2023-07-13T04:56:26;12.00;;;5.70;;
80225;SDS011;69538;42.000;21.452;2023-07-13T04:58:52;20.83;;;6.32;;
80225;SDS011;69538;42.000;21.452;2023-07-13T05:01:18;17.60;;;6.40;;
80225;SDS011;69538;42.000;21.452;2023-07-13T05:03:45;13.48;;;5.72;;
80225;SDS011;69538;42.000;21.452;2023-07-13T05:06:11;15.05;;;6.68;;
80225;SDS011;69538;42.000;21.452;2023-07-13T05:08:38;16.63;;;6.00;;
80225;SDS011;69538;42.000;21.452;2023-07-13T05:11:05;15.25;;;6.35;;
80225;SDS011;69538;42.000;21.452;2023-07-13T05:13:32;16.73;;;7.30;;
80225;SDS011;69538;42.000;21.452;2023-07-13T05:15:59;13.90;;;7.13;;
80225;SDS011;69538;42.000;21.452;2023-07-13T05:18:25;14.75;;;6.15;;
80225;SDS011;69538;42.000;21.452;2023-07-13T05:20:59;10.35;;;5.57;;
80225;SDS011;69538;42.000;21.452;2023-07-13T05:23:25;12.70;;;6.60;;
80225;SDS011;69538;42.000;21.452;2023-07-13T05:25:51;12.05;;;5.47;;
80225;SDS011;69538;42.000;21.452;2023-07-13T05:28:17;11.45;;;5.70;;
80225;SDS011;69538;42.000;21.452;2023-07-13T05:30:47;18.45;;;9.68;;
80225;SDS011;69538;42.000;21.452;2023-07-13T05:33:13;15.90;;;6.15;;
80225;SDS011;69538;42.000;21.452;2023-07-13T05:35:39;15.65;;;8.82;;
80225;SDS011;69538;42.000;21.452;2023-07-13T05:38:06;11.75;;;5.45;;
80225;SDS011;69538;42.000;21.452;2023-07-13T05:40:32;13.25;;;5.95;;
80225;SDS011;69538;42.000;21.452;2023-07-13T05:42:58;10.35;;;5.20;;
80225;SDS011;69538;42.000;21.452;2023-07-13T05:45:24;9.02;;;5.38;;
80225;SDS011;69538;42.000;21.452;2023-07-13T05:47:51;10.77;;;5.10;;
80225;SDS011;69538;42.000;21.452;2023-07-13T05:50:17;13.35;;;5.50;;
80225;SDS011;69538;42.000;21.452;2023-07-13T05:52:43;9.27;;;4.85;;
80225;SDS011;69538;42.000;21.452;2023-07-13T05:55:09;14.30;;;6.28;;
80225;SDS011;69538;42.000;21.452;2023-07-13T05:57:35;10.90;;;5.25;;
80225;SDS011;69538;42.000;21.452;2023-07-13T06:00:02;11.85;;;5.50;;
80225;SDS011;69538;42.000;21.452;2023-07-13T06:02:28;9.93;;;5.53;;
80225;SDS011;69538;42.000;21.452;2023-07-13T06:04:55;13.63;;;5.28;;
80225;SDS011;69538;42.000;21.452;2023-07-13T06:07:21;14.68;;;6.35;;
80225;SDS011;69538;42.000;21.452;2023-07-13T06:09:47;10.55;;;6.82;;
80225;SDS011;69538;42.000;21.452;2023-07-13T06:12:14;12.55;;;5.85;;
80225;SDS011;69538;42.000;21.452;2023-07-13T06:14:40;13.73;;;5.20;;
80225;SDS011;69538;42.000;21.452;2023-07-13T06:17:07;13.10;;;6.38;;
80225;SDS011;69538;42.000;21.452;2023-07-13T06:19:33;10.45;;;4.97;;
80225;SDS011;69538;42.000;21.452;2023-07-13T06:22:00;8.48;;;5.25;;
80225;SDS011;69538;42.000;21.452;2023-07-13T06:24:26;15.45;;;5.97;;
80225;SDS011;69538;42.000;21.452;2023-07-13T06:26:52;14.50;;;6.32;;
80225;SDS011;69538;42.000;21.452;2023-07-13T06:29:18;11.15;;;5.35;;
80225;SDS011;69538;42.000;21.452;2023-07-13T06:31:45;10.77;;;6.15;;
80225;SDS011;69538;42.000;21.452;2023-07-13T06:34:11;10.25;;;4.85;;
80225;SDS011;69538;42.000;21.452;2023-07-13T06:36:37;13.25;;;6.57;;
80225;SDS011;69538;42.000;21.452;2023-07-13T06:39:03;14.82;;;5.80;;
80225;SDS011;69538;42.000;21.452;2023-07-13T06:41:30;24.13;;;17.42;;
80225;SDS011;69538;42.000;21.452;2023-07-13T06:43:56;20.35;;;11.18;;
80225;SDS011;69538;42.000;21.452;2023-07-13T06:46:22;13.13;;;6.55;;
80225;SDS011;69538;42.000;21.452;2023-07-13T06:48:48;11.48;;;5.45;;
80225;SDS011;69538;42.000;21.452;2023-07-13T06:51:15;20.48;;;8.90;;
80225;SDS011;69538;42.000;21.452;2023-07-13T06:53:41;21.58;;;7.55;;
80225;SDS011;69538;42.000;21.452;2023-07-13T06:56:09;11.88;;;6.60;;
80225;SDS011;69538;42.000;21.452;2023-07-13T06:58:35;18.05;;;7.82;;
80225;SDS011;69538;42.000;21.452;2023-07-13T07:01:02;25.08;;;8.20;;
80225;SDS011;69538;42.000;21.452;2023-07-13T07:03:28;15.20;;;6.88;;
80225;SDS011;69538;42.000;21.452;2023-07-13T07:05:59;22.65;;;8.70;;
80225;SDS011;69538;42.000;21.452;2023-07-13T07:08:26;19.48;;;10.07;;
80225;SDS011;69538;42.000;21.452;2023-07-13T07:10:52;19.95;;;9.55;;
80225;SDS011;69538;42.000;21.452;2023-07-13T07:13:19;33.88;;;16.33;;
80225;SDS011;69538;42.000;21.452;2023-07-13T07:15:45;24.33;;;10.70;;
80225;SDS011;69538;42.000;21.452;2023-07-13T07:18:12;20.33;;;7.40;;
80225;SDS011;69538;42.000;21.452;2023-07-13T07:20:38;21.70;;;8.50;;
80225;SDS011;69538;42.000;21.452;2023-07-13T07:23:04;16.17;;;7.28;;
80225;SDS011;69538;42.000;21.452;2023-07-13T07:25:30;15.23;;;7.22;;
80225;SDS011;69538;42.000;21.452;2023-07-13T07:27:58;14.95;;;8.23;;
80225;SDS011;69538;42.000;21.452;2023-07-13T07:30:24;24.92;;;12.73;;
80225;SDS011;69538;42.000;21.452;2023-07-13T07:32:50;24.15;;;11.27;;
80225;SDS011;69538;42.000;21.452;2023-07-13T07:35:16;27.80;;;20.27;;
80225;SDS011;69538;42.000;21.452;2023-07-13T07:37:42;19.58;;;9.90;;
80225;SDS011;69538;42.000;21.452;2023-07-13T07:40:09;25.17;;;12.32;;
80225;SDS011;69538;42.000;21.452;2023-07-13T07:42:35;17.60;;;7.65;;
80225;SDS011;69538;42.000;21.452;2023-07-13T07:45:01;16.13;;;8.05;;
80225;SDS011;69538;42.000;21.452;2023-07-13T07:47:27;17.90;;;8.30;;
80225;SDS011;69538;42.000;21.452;2023-07-13T07:49:53;16.30;;;7.68;;
80225;SDS011;69538;42.000;21.452;2023-07-13T07:52:20;20.20;;;9.90;;
80225;SDS011;69538;42.000;21.452;2023-07-13T07:54:46;21.88;;;11.23;;
80225;SDS011;69538;42.000;21.452;2023-07-13T07:57:12;24.02;;;12.05;;
80225;SDS011;69538;42.000;21.452;2023-07-13T07:59:38;20.23;;;8.93;;
80225;SDS011;69538;42.000;21.452;2023-07-13T08:02:05;19.48;;;8.55;;
80225;SDS011;69538;42.000;21.452;2023-07-13T08:04:31;20.38;;;10.52;;
80225;SDS011;69538;42.000;21.452;2023-07-13T08:06:57;16.17;;;8.35;;
80225;SDS011;69538;42.000;21.452;2023-07-13T08:09:23;13.75;;;8.18;;
80225;SDS011;69538;42.000;21.452;2023-07-13T08:11:49;23.55;;;10.50;;
80225;SDS011;69538;42.000;21.452;2023-07-13T08:14:17;17.25;;;10.15;;
80225;SDS011;69538;42.000;21.452;2023-07-13T08:16:43;17.23;;;9.60;;
80225;SDS011;69538;42.000;21.452;2023-07-13T08:19:09;15.98;;;9.43;;
80225;SDS011;69538;42.000;21.452;2023-07-13T08:21:36;18.38;;;8.10;;
80225;SDS011;69538;42.000;21.452;2023-07-13T08:24:03;18.45;;;8.60;;
80225;SDS011;69538;42.000;21.452;2023-07-13T08:26:29;18.88;;;10.43;;
80225;SDS011;69538;42.000;21.452;2023-07-13T08:28:55;17.10;;;9.07;;
80225;SDS011;69538;42.000;21.452;2023-07-13T08:31:21;21.85;;;8.70;;
80225;SDS011;69538;42.000;21.452;2023-07-13T08:33:49;22.13;;;10.48;;
80225;SDS011;69538;42.000;21.452;2023-07-13T08:36:17;21.05;;;9.95;;
80225;SDS011;69538;42.000;21.452;2023-07-13T08:41:11;18.63;;;11.63;;
80225;SDS011;69538;42.000;21.452;2023-07-13T08:43:38;14.75;;;8.15;;
80225;SDS011;69538;42.000;21.452;2023-07-13T08:48:38;13.57;;;7.55;;
80225;SDS011;69538;42.000;21.452;2023-07-13T08:53:59;12.52;;;7.65;;
80225;SDS011;69538;42.000;21.452;2023-07-13T08:56:27;12.52;;;7.38;;
80225;SDS011;69538;42.000;21.452;2023-07-13T08:58:58;9.85;;;6.07;;
80225;SDS011;69538;42.000;21.452;2023-07-13T09:03:59;17.65;;;10.20;;
80225;SDS011;69538;42.000;21.452;2023-07-13T09:06:31;13.85;;;7.78;;
80225;SDS011;69538;42.000;21.452;2023-07-13T09:09:02;17.67;;;8.00;;
80225;SDS011;69538;42.000;21.452;2023-07-13T09:11:41;14.18;;;8.65;;
80225;SDS011;69538;42.000;21.452;2023-07-13T09:16:46;11.63;;;6.97;;
80225;SDS011;69538;42.000;21.452;2023-07-13T09:19:15;15.65;;;7.85;;
80225;SDS011;69538;42.000;21.452;2023-07-13T09:21:43;14.07;;;7.38;;
80225;SDS011;69538;42.000;21.452;2023-07-13T09:26:48;13.48;;;7.63;;
80225;SDS011;69538;42.000;21.452;2023-07-13T09:29:18;12.45;;;7.03;;
80225;SDS011;69538;42.000;21.452;2023-07-13T09:31:47;22.92;;;19.02;;
80225;SDS011;69538;42.000;21.452;2023-07-13T09:34:15;22.48;;;8.07;;
80225;SDS011;69538;42.000;21.452;2023-07-13T09:36:42;17.33;;;7.45;;
80225;SDS011;69538;42.000;21.452;2023-07-13T09:42:00;12.18;;;7.10;;
80225;SDS011;69538;42.000;21.452;2023-07-13T09:44:28;10.10;;;6.38;;
80225;SDS011;69538;42.000;21.452;2023-07-13T09:46:58;13.68;;;7.72;;
80225;SDS011;69538;42.000;21.452;2023-07-13T09:49:25;14.63;;;10.20;;
80225;SDS011;69538;42.000;21.452;2023-07-13T09:51:58;18.88;;;7.75;;
80225;SDS011;69538;42.000;21.452;2023-07-13T09:54:25;14.75;;;10.82;;
80225;SDS011;69538;42.000;21.452;2023-07-13T09:56:55;11.65;;;6.20;;
80225;SDS011;69538;42.000;21.452;2023-07-13T09:59:22;11.27;;;7.43;;
80225;SDS011;69538;42.000;21.452;2023-07-13T10:01:49;16.98;;;8.15;;
80225;SDS011;69538;42.000;21.452;2023-07-13T10:04:19;10.05;;;6.68;;
80225;SDS011;69538;42.000;21.452;2023-07-13T10:06:46;13.27;;;7.15;;
80225;SDS011;69538;42.000;21.452;2023-07-13T10:09:16;11.93;;;7.40;;
80225;SDS011;69538;42.000;21.452;2023-07-13T10:11:43;11.05;;;6.25;;
80225;SDS011;69538;42.000;21.452;2023-07-13T10:14:16;21.77;;;8.80;;
80225;SDS011;69538;42.000;21.452;2023-07-13T10:16:45;15.10;;;6.90;;
80225;SDS011;69538;42.000;21.452;2023-07-13T10:19:18;13.90;;;6.85;;
80225;SDS011;69538;42.000;21.452;2023-07-13T10:24:20;13.68;;;6.75;;
80225;SDS011;69538;42.000;21.452;2023-07-13T10:29:22;11.35;;;6.10;;
80225;SDS011;69538;42.000;21.452;2023-07-13T10:31:49;12.68;;;6.10;;
80225;SDS011;69538;42.000;21.452;2023-07-13T10:34:15;12.57;;;7.50;;
80225;SDS011;69538;42.000;21.452;2023-07-13T10:36:43;10.73;;;5.82;;
80225;SDS011;69538;42.000;21.452;2023-07-13T10:39:15;13.23;;;6.32;;
80225;SDS011;69538;42.000;21.452;2023-07-13T10:41:41;10.02;;;6.00;;
80225;SDS011;69538;42.000;21.452;2023-07-13T10:44:15;9.30;;;5.90;;
80225;SDS011;69538;42.000;21.452;2023-07-13T10:46:45;10.88;;;5.97;;
80225;SDS011;69538;42.000;21.452;2023-07-13T10:49:11;10.63;;;5.32;;
80225;SDS011;69538;42.000;21.452;2023-07-13T10:51:38;14.13;;;5.32;;
80225;SDS011;69538;42.000;21.452;2023-07-13T10:56:41;9.38;;;5.90;;
80225;SDS011;69538;42.000;21.452;2023-07-13T10:59:12;10.60;;;5.50;;
80225;SDS011;69538;42.000;21.452;2023-07-13T11:01:41;13.85;;;6.20;;
80225;SDS011;69538;42.000;21.452;2023-07-13T11:04:12;12.80;;;5.95;;
80225;SDS011;69538;42.000;21.452;2023-07-13T11:06:40;8.43;;;4.65;;
80225;SDS011;69538;42.000;21.452;2023-07-13T11:11:56;10.88;;;5.35;;
80225;SDS011;69538;42.000;21.452;2023-07-13T11:14:26;12.77;;;8.00;;
80225;SDS011;69538;42.000;21.452;2023-07-13T11:16:53;9.48;;;4.80;;
80225;SDS011;69538;42.000;21.452;2023-07-13T11:22:02;8.48;;;4.72;;
80225;SDS011;69538;42.000;21.452;2023-07-13T11:24:29;7.60;;;3.78;;
80225;SDS011;69538;42.000;21.452;2023-07-13T11:26:55;9.30;;;5.10;;
80225;SDS011;69538;42.000;21.452;2023-07-13T11:31:52;10.13;;;4.57;;
80225;SDS011;69538;42.000;21.452;2023-07-13T11:36:45;13.82;;;5.15;;
80225;SDS011;69538;42.000;21.452;2023-07-13T11:41:42;9.32;;;4.90;;
80225;SDS011;69538;42.000;21.452;2023-07-13T11:46:37;7.97;;;5.25;;
80225;SDS011;69538;42.000;21.452;2023-07-13T11:49:06;11.73;;;5.35;;
80225;SDS011;69538;42.000;21.452;2023-07-13T11:51:34;7.15;;;4.90;;
80225;SDS011;69538;42.000;21.452;2023-07-13T11:54:03;7.53;;;4.68;;
80225;SDS011;69538;42.000;21.452;2023-07-13T11:56:30;11.93;;;5.47;;
80225;SDS011;69538;42.000;21.452;2023-07-13T11:59:04;9.23;;;4.90;;
80225;SDS011;69538;42.000;21.452;2023-07-13T12:01:32;10.57;;;5.28;;
80225;SDS011;69538;42.000;21.452;2023-07-13T12:04:03;13.20;;;5.78;;
80225;SDS011;69538;42.000;21.452;2023-07-13T12:06:35;10.73;;;6.00;;
80225;SDS011;69538;42.000;21.452;2023-07-13T12:09:13;13.55;;;7.65;;
80225;SDS011;69538;42.000;21.452;2023-07-13T12:11:41;11.70;;;8.32;;
80225;SDS011;69538;42.000;21.452;2023-07-13T12:14:17;10.35;;;6.22;;
80225;SDS011;69538;42.000;21.452;2023-07-13T12:16:45;9.95;;;5.80;;
80225;SDS011;69538;42.000;21.452;2023-07-13T12:19:17;7.80;;;5.22;;
80225;SDS011;69538;42.000;21.452;2023-07-13T12:21:44;8.25;;;5.45;;
80225;SDS011;69538;42.000;21.452;2023-07-13T12:24:14;8.10;;;4.93;;
80225;SDS011;69538;42.000;21.452;2023-07-13T12:26:41;9.98;;;5.60;;
80225;SDS011;69538;42.000;21.452;2023-07-13T12:29:07;12.48;;;5.75;;
80225;SDS011;69538;42.000;21.452;2023-07-13T12:31:34;10.68;;;5.63;;
80225;SDS011;69538;42.000;21.452;2023-07-13T12:34:11;10.20;;;5.35;;
80225;SDS011;69538;42.000;21.452;2023-07-13T12:36:45;6.95;;;5.03;;
80225;SDS011;69538;42.000;21.452;2023-07-13T12:39:14;14.38;;;5.95;;
80225;SDS011;69538;42.000;21.452;2023-07-13T12:41:41;18.90;;;5.60;;
80225;SDS011;69538;42.000;21.452;2023-07-13T12:44:12;16.38;;;5.80;;
80225;SDS011;69538;42.000;21.452;2023-07-13T12:46:39;8.32;;;6.03;;
80225;SDS011;69538;42.000;21.452;2023-07-13T12:49:23;8.80;;;5.28;;
80225;SDS011;69538;42.000;21.452;2023-07-13T12:51:49;8.43;;;6.18;;
80225;SDS011;69538;42.000;21.452;2023-07-13T12:54:17;9.05;;;5.15;;
80225;SDS011;69538;42.000;21.452;2023-07-13T12:56:45;13.98;;;6.13;;
80225;SDS011;69538;42.000;21.452;2023-07-13T12:59:17;10.88;;;5.93;;
80225;SDS011;69538;42.000;21.452;2023-07-13T13:01:45;9.00;;;5.32;;
80225;SDS011;69538;42.000;21.452;2023-07-13T13:04:12;10.95;;;6.50;;
80225;SDS011;69538;42.000;21.452;2023-07-13T13:06:38;11.88;;;7.43;;
80225;SDS011;69538;42.000;21.452;2023-07-13T13:09:13;14.75;;;8.63;;
80225;SDS011;69538;42.000;21.452;2023-07-13T13:11:40;10.73;;;5.38;;
80225;SDS011;69538;42.000;21.452;2023-07-13T13:14:07;9.10;;;5.28;;
80225;SDS011;69538;42.000;21.452;2023-07-13T13:16:34;9.27;;;5.68;;
80225;SDS011;69538;42.000;21.452;2023-07-13T13:19:09;14.02;;;6.03;;
80225;SDS011;69538;42.000;21.452;2023-07-13T13:21:36;8.02;;;5.30;;
80225;SDS011;69538;42.000;21.452;2023-07-13T13:24:04;9.90;;;6.07;;
80225;SDS011;69538;42.000;21.452;2023-07-13T13:26:30;9.85;;;4.95;;
80225;SDS011;69538;42.000;21.452;2023-07-13T13:31:24;19.05;;;7.05;;
80225;SDS011;69538;42.000;21.452;2023-07-13T13:33:50;7.47;;;5.70;;
80225;SDS011;69538;42.000;21.452;2023-07-13T13:36:20;12.15;;;5.65;;
80225;SDS011;69538;42.000;21.452;2023-07-13T13:38:48;15.88;;;5.95;;
80225;SDS011;69538;42.000;21.452;2023-07-13T13:41:14;12.93;;;5.30;;
80225;SDS011;69538;42.000;21.452;2023-07-13T13:43:41;16.90;;;5.82;;
80225;SDS011;69538;42.000;21.452;2023-07-13T13:46:19;12.18;;;6.72;;
80225;SDS011;69538;42.000;21.452;2023-07-13T13:48:47;9.00;;;5.05;;
80225;SDS011;69538;42.000;21.452;2023-07-13T13:51:17;14.75;;;6.53;;
80225;SDS011;69538;42.000;21.452;2023-07-13T13:53:44;8.95;;;5.13;;
80225;SDS011;69538;42.000;21.452;2023-07-13T13:56:11;10.88;;;6.25;;
80225;SDS011;69538;42.000;21.452;2023-07-13T13:58:38;7.03;;;4.90;;
80225;SDS011;69538;42.000;21.452;2023-07-13T14:01:04;9.88;;;5.60;;
80225;SDS011;69538;42.000;21.452;2023-07-13T14:03:33;12.48;;;5.28;;
80225;SDS011;69538;42.000;21.452;2023-07-13T14:05:59;9.60;;;5.20;;
80225;SDS011;69538;42.000;21.452;2023-07-13T14:08:26;12.63;;;5.32;;
80225;SDS011;69538;42.000;21.452;2023-07-13T14:10:52;9.15;;;4.82;;
80225;SDS011;69538;42.000;21.452;2023-07-13T14:13:20;9.63;;;5.00;;
80225;SDS011;69538;42.000;21.452;2023-07-13T14:18:13;15.70;;;5.85;;
80225;SDS011;69538;42.000;21.452;2023-07-13T14:20:43;9.27;;;5.07;;
80225;SDS011;69538;42.000;21.452;2023-07-13T14:23:11;10.43;;;5.45;;
80225;SDS011;69538;42.000;21.452;2023-07-13T14:25:38;14.30;;;6.07;;
80225;SDS011;69538;42.000;21.452;2023-07-13T14:28:11;10.10;;;5.30;;
80225;SDS011;69538;42.000;21.452;2023-07-13T14:30:41;10.02;;;5.65;;
80225;SDS011;69538;42.000;21.452;2023-07-13T14:33:11;9.52;;;4.85;;
80225;SDS011;69538;42.000;21.452;2023-07-13T14:35:37;8.30;;;5.28;;
80225;SDS011;69538;42.000;21.452;2023-07-13T14:38:03;10.73;;;5.15;;
80225;SDS011;69538;42.000;21.452;2023-07-13T14:40:30;8.18;;;5.30;;
80225;SDS011;69538;42.000;21.452;2023-07-13T14:42:57;15.15;;;5.30;;
80225;SDS011;69538;42.000;21.452;2023-07-13T14:45:23;10.45;;;5.45;;
80225;SDS011;69538;42.000;21.452;2023-07-13T14:47:50;8.65;;;4.82;;
80225;SDS011;69538;42.000;21.452;2023-07-13T14:50:18;8.80;;;4.38;;
80225;SDS011;69538;42.000;21.452;2023-07-13T14:52:45;7.65;;;4.68;;
80225;SDS011;69538;42.000;21.452;2023-07-13T14:55:13;8.75;;;4.60;;
80225;SDS011;69538;42.000;21.452;2023-07-13T14:57:39;9.38;;;4.60;;
80225;SDS011;69538;42.000;21.452;2023-07-13T15:00:14;10.18;;;4.60;;
80225;SDS011;69538;42.000;21.452;2023-07-13T15:02:41;10.57;;;5.38;;
80225;SDS011;69538;42.000;21.452;2023-07-13T15:05:15;11.40;;;5.35;;
80225;SDS011;69538;42.000;21.452;2023-07-13T15:10:18;9.90;;;5.25;;
80225;SDS011;69538;42.000;21.452;2023-07-13T15:12:45;11.25;;;4.53;;
80225;SDS011;69538;42.000;21.452;2023-07-13T15:15:11;7.60;;;4.47;;
80225;SDS011;69538;42.000;21.452;2023-07-13T15:17:39;9.13;;;5.25;;